Time;durP1;ratioP1;P1;durP2;ratioP2;P2;SDS_P1;SDS_P2;PMS_P1;PMS_P2;Temp;Humidity;BMP_temperature;BMP_pressure;BME280_temperature;BME280_humidity;BME280_pressure;Samples;Min_cycle;Max_cycle;Signal;HPM_P1;HPM_P2
2022/09/20 00:01:09;;;;;;;1999.90;999.90;;;11.80;99.90;;;;;;5112146;28;20039;-80
2022/09/20 00:03:37;;;;;;;1999.90;999.90;;;11.70;99.90;;;;;;5111524;28;20075;-80
2022/09/20 00:06:04;;;;;;;1999.90;999.90;;;11.70;99.90;;;;;;5077671;28;20090;-80
2022/09/20 00:08:30;;;;;;;1999.90;999.90;;;11.80;99.90;;;;;;5111962;28;20392;-79
2022/09/20 00:11:05;;;;;;;1999.90;999.90;;;11.70;99.90;;;;;;5111660;28;20043;-81
2022/09/20 00:13:32;;;;;;;1999.90;999.90;;;11.70;99.90;;;;;;5077105;28;20072;-79
2022/09/20 00:15:57;;;;;;;1999.90;999.90;;;11.70;99.90;;;;;;5112396;28;20058;-79
2022/09/20 00:18:23;;;;;;;1999.90;999.90;;;11.70;99.90;;;;;;5111912;28;20051;-81
2022/09/20 00:20:49;;;;;;;1999.90;999.90;;;11.60;99.90;;;;;;5111257;28;20040;-79
2022/09/20 00:23:16;;;;;;;1999.90;999.90;;;11.70;99.90;;;;;;5093837;28;20055;-77
2022/09/20 00:25:42;;;;;;;1999.90;999.90;;;11.60;99.90;;;;;;5111499;28;20048;-77
2022/09/20 00:28:09;;;;;;;1999.90;999.90;;;11.90;99.90;;;;;;5112170;28;20052;-77
2022/09/20 00:30:35;;;;;;;1999.90;999.90;;;11.60;99.90;;;;;;5111600;28;20090;-80
2022/09/20 00:33:01;;;;;;;1999.90;999.90;;;11.60;99.90;;;;;;5111560;28;20269;-81
2022/09/20 00:35:28;;;;;;;1999.90;999.90;;;11.60;99.90;;;;;;5111661;28;20044;-77
2022/09/20 00:37:54;;;;;;;1999.90;999.90;;;11.60;99.90;;;;;;5111184;28;20125;-77
2022/09/20 00:40:22;;;;;;;1999.90;999.90;;;11.60;99.90;;;;;;5112166;28;20093;-77
2022/09/20 00:42:49;;;;;;;1999.90;999.90;;;11.60;99.90;;;;;;5111390;28;20126;-76
2022/09/20 00:45:24;;;;;;;1999.90;999.90;;;11.60;99.90;;;;;;5094011;28;20052;-77
2022/09/20 00:47:59;;;;;;;1999.90;999.90;;;11.80;99.90;;;;;;5093515;28;20083;-77
2022/09/20 00:50:37;;;;;;;1999.90;999.90;;;11.60;99.90;;;;;;5111949;28;20048;-77
2022/09/20 00:53:06;;;;;;;1999.90;999.90;;;11.50;99.90;;;;;;5093656;28;20047;-77
2022/09/20 00:55:35;;;;;;;1999.90;999.90;;;11.60;99.90;;;;;;5077134;28;20403;-76
2022/09/20 00:58:01;;;;;;;1999.90;999.90;;;11.50;99.90;;;;;;5111631;28;20043;-77
2022/09/20 01:00:27;;;;;;;1999.90;999.90;;;11.90;99.90;;;;;;5112003;28;20046;-77
2022/09/20 01:02:57;;;;;;;1999.90;999.90;;;11.90;99.90;;;;;;5111561;28;20042;-77
2022/09/20 01:05:24;;;;;;;1999.90;999.90;;;12.30;99.90;;;;;;5111564;28;20048;-77
2022/09/20 01:07:51;;;;;;;1999.90;999.90;;;11.50;99.90;;;;;;5111149;28;20047;-77
2022/09/20 01:10:17;;;;;;;1999.90;999.90;;;11.60;99.90;;;;;;5111394;28;20131;-77
2022/09/20 01:12:44;;;;;;;1999.90;999.90;;;11.50;99.90;;;;;;5113449;28;20036;-77
2022/09/20 01:15:11;;;;;;;1999.90;999.90;;;11.50;99.90;;;;;;5114694;28;20083;-79
2022/09/20 01:17:41;;;;;;;1999.90;999.90;;;12.50;99.90;;;;;;5115121;28;20059;-83
2022/09/20 01:20:28;;;;;;;1999.90;999.90;;;11.50;99.90;;;;;;5115292;28;20138;-78
2022/09/20 01:23:27;;;;;;;1999.90;999.90;;;11.50;99.90;;;;;;5080156;28;20047;-79
2022/09/20 01:26:21;;;;;;;1999.90;999.90;;;11.50;99.90;;;;;;5096395;28;20059;-78
2022/09/20 01:28:48;;;;;;;1999.90;999.90;;;11.50;99.90;;;;;;5115110;28;20044;-79
2022/09/20 01:31:25;;;;;;;1999.90;999.90;;;12.60;99.90;;;;;;5096793;28;20122;-84
2022/09/20 01:34:33;;;;;;;1999.90;999.90;;;11.40;99.90;;;;;;5115045;28;20035;-81
2022/09/20 01:37:04;;;;;;;1999.90;999.90;;;11.40;99.90;;;;;;5031233;28;20053;-79
2022/09/20 01:39:32;;;;;;;1999.90;999.90;;;11.30;99.90;;;;;;5031930;28;20510;-78
2022/09/20 01:42:04;;;;;;;1999.90;999.90;;;11.30;99.90;;;;;;5076449;28;20051;-78
2022/09/20 01:45:00;;;;;;;1999.90;999.90;;;11.60;99.90;;;;;;5114933;28;20044;-78
2022/09/20 01:47:45;;;;;;;1999.90;999.90;;;11.30;99.90;;;;;;5096655;28;20479;-79
2022/09/20 01:50:36;;;;;;;1999.90;999.90;;;11.40;99.90;;;;;;5114867;28;20062;-84
2022/09/20 01:53:30;;;;;;;1999.90;999.90;;;11.30;99.90;;;;;;5072353;28;20362;-81
2022/09/20 01:56:08;;;;;;;1999.90;999.90;;;11.30;99.90;;;;;;5114400;28;20135;-78
2022/09/20 01:58:52;;;;;;;1999.90;999.90;;;11.20;99.90;;;;;;5114534;28;20054;-78
2022/09/20 02:01:46;;;;;;;1999.90;999.90;;;11.30;99.90;;;;;;5095869;28;20865;-78
2022/09/20 02:04:47;;;;;;;1999.90;999.90;;;11.30;99.90;;;;;;5114705;28;20048;-78
2022/09/20 02:07:31;;;;;;;1999.90;999.90;;;11.30;99.90;;;;;;5030529;28;20093;-78
2022/09/20 02:10:14;;;;;;;1999.90;999.90;;;11.20;99.90;;;;;;5107139;28;20120;-79
2022/09/20 02:13:14;;;;;;;1999.90;999.90;;;11.20;99.90;;;;;;5095841;28;20051;-79
2022/09/20 02:16:17;;;;;;;1999.90;999.90;;;11.20;99.90;;;;;;5095656;28;20043;-90
2022/09/20 02:19:05;;;;;;;1999.90;999.90;;;11.10;99.90;;;;;;5113935;28;20047;-79
2022/09/20 02:22:01;;;;;;;1999.90;999.90;;;11.00;99.90;;;;;;5113400;28;20040;-80
2022/09/20 02:25:04;;;;;;;1999.90;999.90;;;11.60;99.90;;;;;;5098166;28;20055;-79
2022/09/20 02:27:38;;;;;;;1999.90;999.90;;;10.90;99.90;;;;;;5113680;28;20053;-79
2022/09/20 02:30:25;;;;;;;1999.90;999.90;;;10.90;99.90;;;;;;5114122;28;20047;-80
2022/09/20 02:33:00;;;;;;;1999.90;999.90;;;10.90;99.90;;;;;;5113746;28;20049;-81
2022/09/20 02:35:58;;;;;;;1999.90;999.90;;;10.90;99.90;;;;;;5114090;28;20048;-79
2022/09/20 02:38:54;;;;;;;1999.90;999.90;;;10.90;99.90;;;;;;5113147;28;20131;-84
2022/09/20 02:41:38;;;;;;;1999.90;999.90;;;10.90;99.90;;;;;;5113405;28;20136;-82
2022/09/20 02:44:23;;;;;;;1999.90;999.90;;;10.90;99.90;;;;;;5095136;28;20040;-80
2022/09/20 02:47:22;;;;;;;1999.90;999.90;;;10.90;99.90;;;;;;5113390;28;20075;-86
2022/09/20 02:50:18;;;;;;;1999.90;999.90;;;10.90;99.90;;;;;;5092855;28;20496;-81
2022/09/20 02:52:56;;;;;;;1999.90;999.90;;;10.80;99.90;;;;;;5113456;28;20480;-79
2022/09/20 02:56:02;;;;;;;1999.90;999.90;;;10.80;99.90;;;;;;5113664;28;20139;-79
2022/09/20 02:58:40;;;;;;;1999.90;999.90;;;10.80;99.90;;;;;;5113191;28;20151;-78
2022/09/20 03:01:12;;;;;;;1999.90;999.90;;;10.80;99.90;;;;;;5113593;28;20044;-78
2022/09/20 03:03:55;;;;;;;1999.90;999.90;;;11.90;99.90;;;;;;5113545;28;20082;-79
2022/09/20 03:06:29;;;;;;;1999.90;999.90;;;10.70;99.90;;;;;;5113201;28;20069;-81
2022/09/20 03:09:29;;;;;;;1999.90;999.90;;;10.70;99.90;;;;;;5112718;28;20048;-79
2022/09/20 03:12:32;;;;;;;1999.90;999.90;;;10.70;99.90;;;;;;5112610;28;20121;-80
2022/09/20 03:15:29;;;;;;;1999.90;999.90;;;10.70;99.90;;;;;;5112344;28;20102;-78
2022/09/20 03:18:10;;;;;;;1999.90;999.90;;;10.70;99.90;;;;;;5024132;28;20055;-78
2022/09/20 03:21:08;;;;;;;1999.90;999.90;;;10.80;99.90;;;;;;5113074;28;20404;-78
2022/09/20 03:23:52;;;;;;;1999.90;999.90;;;10.90;99.90;;;;;;5112459;28;20032;-78
2022/09/20 03:26:45;;;;;;;1999.90;999.90;;;10.90;99.90;;;;;;5112841;28;20152;-79
2022/09/20 03:29:30;;;;;;;1999.90;999.90;;;11.00;99.90;;;;;;5112166;28;20537;-84
2022/09/20 03:32:16;;;;;;;1999.90;999.90;;;11.10;99.90;;;;;;5112657;28;20197;-78
2022/09/20 03:35:29;;;;;;;1999.90;999.90;;;11.20;99.90;;;;;;5112289;28;20579;-79
2022/09/20 03:38:01;;;;;;;1999.90;999.90;;;11.30;99.90;;;;;;5112203;28;20396;-79
2022/09/20 03:41:16;;;;;;;1999.90;999.90;;;11.40;99.90;;;;;;5094443;28;20047;-79
2022/09/20 03:44:22;;;;;;;1999.90;999.90;;;12.60;99.90;;;;;;5039967;28;20051;-78
2022/09/20 03:46:55;;;;;;;1999.90;999.90;;;11.50;99.90;;;;;;5112697;28;20052;-79
2022/09/20 03:49:45;;;;;;;1999.90;999.90;;;11.60;99.90;;;;;;5111996;28;20040;-79
2022/09/20 03:52:19;;;;;;;1999.90;999.90;;;11.70;99.90;;;;;;5112113;28;20325;-82
2022/09/20 03:55:22;;;;;;;1999.90;999.90;;;11.60;99.90;;;;;;5111366;28;20388;-80
2022/09/20 03:57:55;;;;;;;1999.90;999.90;;;11.60;99.90;;;;;;5094626;28;20108;-86
2022/09/20 04:00:33;;;;;;;1999.90;999.90;;;11.90;99.90;;;;;;5112487;28;20039;-81
2022/09/20 04:03:33;;;;;;;1999.90;999.90;;;12.00;99.90;;;;;;5111894;28;20096;-81
2022/09/20 04:06:16;;;;;;;;;;;11.60;99.90;;;;;;5108064;28;20111;-79
2022/09/20 04:09:04;;;;;;;1999.90;999.90;;;11.70;99.90;;;;;;5111030;28;20321;-79
2022/09/20 04:12:12;;;;;;;1999.90;999.90;;;11.80;99.90;;;;;;5112468;28;20097;-78
2022/09/20 04:14:37;;;;;;;1999.90;999.90;;;11.90;99.90;;;;;;5073747;28;20055;-79
2022/09/20 04:17:26;;;;;;;1999.90;999.90;;;12.00;99.90;;;;;;5111913;28;20194;-78
2022/09/20 04:20:02;;;;;;;1999.90;999.90;;;12.00;99.90;;;;;;5110866;28;20050;-85
2022/09/20 04:22:28;;;;;;;1999.90;999.90;;;12.10;99.90;;;;;;5112170;28;20043;-79
2022/09/20 04:25:13;;;;;;;1999.90;999.90;;;12.20;99.90;;;;;;5111824;28;20040;-83
2022/09/20 04:27:48;;;;;;;1999.90;999.90;;;12.20;99.90;;;;;;5112769;28;20123;-79
2022/09/20 04:30:23;;;;;;;1999.90;999.90;;;12.20;99.90;;;;;;5111789;28;20040;-80
2022/09/20 04:33:10;;;;;;;1999.90;999.90;;;12.20;99.90;;;;;;5112523;28;20502;-80
2022/09/20 04:38:42;;;;;;;1999.90;999.90;;;12.40;99.90;;;;;;5111959;28;20164;-82
2022/09/20 04:41:59;;;;;;;1999.90;999.90;;;12.60;99.90;;;;;;5110912;28;20297;-79
2022/09/20 04:44:46;;;;;;;1999.90;999.90;;;12.60;99.90;;;;;;5049979;28;20056;-79
2022/09/20 04:47:30;;;;;;;1999.90;999.90;;;12.70;99.90;;;;;;5095374;28;20480;-81
2022/09/20 04:50:18;;;;;;;1999.90;999.90;;;12.70;99.90;;;;;;5116436;28;20130;-78
2022/09/20 04:53:16;;;;;;;1999.90;999.90;;;12.70;99.90;;;;;;5097704;28;20422;-79
2022/09/20 04:55:49;;;;;;;1999.90;999.90;;;12.70;99.90;;;;;;5115294;28;20119;-77
2022/09/20 04:58:37;;;;;;;1999.90;999.90;;;12.60;99.90;;;;;;5097858;28;20113;-80
2022/09/20 05:01:18;;;;;;;1999.90;999.90;;;12.60;99.90;;;;;;5115643;28;20044;-78
2022/09/20 05:04:09;;;;;;;1999.90;999.90;;;12.70;99.90;;;;;;5098299;28;20089;-79
2022/09/20 05:07:03;;;;;;;1999.90;999.90;;;12.70;99.90;;;;;;5097659;28;20360;-79
2022/09/20 05:09:43;;;;;;;1999.90;999.90;;;12.70;99.90;;;;;;5116160;28;20471;-79
2022/09/20 05:12:27;;;;;;;1999.90;999.90;;;12.70;99.90;;;;;;5115745;28;20127;-79
2022/09/20 05:14:55;;;;;;;1999.90;999.90;;;12.90;99.90;;;;;;5116015;28;20051;-82
2022/09/20 05:17:30;;;;;;;1999.90;999.90;;;12.80;99.90;;;;;;5115209;28;20051;-79
2022/09/20 05:20:00;;;;;;;1999.90;999.90;;;12.80;99.90;;;;;;5115064;28;20047;-79
2022/09/20 05:22:54;;;;;;;1999.90;999.90;;;12.80;99.90;;;;;;5080801;28;20078;-79
2022/09/20 05:25:50;;;;;;;1999.90;999.90;;;12.70;99.90;;;;;;5115906;28;20047;-80
2022/09/20 05:28:39;;;;;;;1999.90;999.90;;;12.90;99.90;;;;;;5116296;28;20044;-79
2022/09/20 05:31:18;;;;;;;1999.90;999.90;;;12.90;99.90;;;;;;5066528;28;20058;-80
2022/09/20 05:33:58;;;;;;;;;;;13.00;99.90;;;;;;5116488;28;20050;-82
2022/09/20 05:36:39;;;;;;;1999.90;999.90;;;13.00;99.90;;;;;;5115576;28;20288;-82
2022/09/20 05:39:30;;;;;;;1999.90;999.90;;;13.10;99.90;;;;;;5115244;28;20058;-86
2022/09/20 05:42:27;;;;;;;1999.90;999.90;;;13.10;99.90;;;;;;5097252;28;20499;-82
2022/09/20 05:44:56;;;;;;;1999.90;999.90;;;13.30;99.90;;;;;;5090755;28;20434;-81
2022/09/20 05:47:31;;;;;;;1999.90;999.90;;;13.30;99.90;;;;;;5114764;28;20046;-81
2022/09/20 05:50:18;;;;;;;1999.90;999.90;;;13.40;99.90;;;;;;5115657;28;20055;-81
2022/09/20 05:53:25;;;;;;;1999.90;999.90;;;13.40;99.90;;;;;;5114998;28;20445;-81
2022/09/20 05:56:25;;;;;;;1999.90;999.90;;;13.50;99.90;;;;;;5087302;28;20055;-81
2022/09/20 05:59:11;;;;;;;1999.90;999.90;;;13.60;99.90;;;;;;5079703;28;20060;-81
2022/09/20 06:02:12;;;;;;;1999.90;999.90;;;13.70;99.90;;;;;;5114631;28;20392;-82
2022/09/20 06:04:55;;;;;;;1999.90;999.90;;;13.70;99.90;;;;;;5113826;28;20047;-82
2022/09/20 06:07:40;;;;;;;1999.90;999.90;;;13.80;99.90;;;;;;5114328;28;20127;-81
2022/09/20 06:10:15;;;;;;;1999.90;999.90;;;13.70;99.90;;;;;;5114463;28;20047;-82
2022/09/20 06:12:51;;;;;;;1999.90;999.90;;;13.80;99.90;;;;;;5097104;28;20055;-82
2022/09/20 06:15:25;;;;;;;1999.90;999.90;;;13.80;99.90;;;;;;5096318;28;20059;-82
2022/09/20 06:17:54;;;;;;;1999.90;999.90;;;14.00;99.90;;;;;;5113957;28;20051;-82
2022/09/20 06:20:29;;;;;;;1999.90;999.90;;;13.90;99.90;;;;;;5113622;28;20368;-82
2022/09/20 06:22:58;;;;;;;1999.90;999.90;;;14.00;99.90;;;;;;5095894;28;20490;-83
2022/09/20 06:25:33;;;;;;;1999.90;999.90;;;14.10;99.90;;;;;;5095351;28;20051;-82
2022/09/20 06:28:13;;;;;;;1999.90;999.90;;;14.20;99.90;;;;;;5114185;28;20476;-83
2022/09/20 06:30:45;;;;;;;1999.90;999.90;;;14.30;99.90;;;;;;5114198;28;20046;-83
2022/09/20 06:33:19;;;;;;;1999.90;999.90;;;14.30;99.90;;;;;;5095988;28;20048;-82
2022/09/20 06:42:03;;;;;;;1999.90;999.90;;;14.20;99.90;;;;;;5095955;28;20392;-82
2022/09/20 06:44:29;;;;;;;1999.90;999.90;;;14.20;99.90;;;;;;5114062;28;20043;-82
2022/09/20 06:46:54;;;;;;;1999.90;999.90;;;15.00;99.90;;;;;;5114435;28;20050;-82
2022/09/20 06:49:21;;;;;;;1999.90;999.90;;;14.20;99.90;;;;;;5112629;28;20043;-82
2022/09/20 06:51:49;;;;;;;1999.90;999.90;;;14.20;99.90;;;;;;5114154;28;20055;-83
2022/09/20 06:54:19;;;;;;;;;;;14.30;99.90;;;;;;5079545;28;20492;-84
2022/09/20 06:56:46;;;;;;;1999.90;999.90;;;14.40;99.90;;;;;;5114363;28;20303;-83
2022/09/20 06:59:14;;;;;;;1999.90;999.90;;;14.60;99.90;;;;;;5114513;28;20047;-84
2022/09/20 07:01:40;;;;;;;1999.90;999.90;;;14.70;99.90;;;;;;5095996;28;20083;-83
2022/09/20 07:04:07;;;;;;;1999.90;999.90;;;15.00;99.90;;;;;;5114641;28;20055;-82
2022/09/20 07:06:33;;;;;;;1999.90;999.90;;;14.90;99.90;;;;;;5112689;28;20511;-83
2022/09/20 07:08:59;;;;;;;1999.90;999.90;;;15.00;99.90;;;;;;5095427;28;20047;-83
2022/09/20 07:11:24;;;;;;;1999.90;999.90;;;15.00;99.90;;;;;;5113037;28;20042;-83
2022/09/20 07:13:52;;;;;;;1999.90;999.90;;;15.30;99.90;;;;;;5095820;28;20046;-83
2022/09/20 07:16:18;;;;;;;;;;;15.40;99.90;;;;;;5095749;28;20048;-85
2022/09/20 07:18:44;;;;;;;1999.90;999.90;;;15.40;99.90;;;;;;5113658;28;19927;-84
2022/09/20 07:21:12;;;;;;;1999.90;999.90;;;15.50;99.90;;;;;;5113850;28;20426;-83
2022/09/20 07:23:38;;;;;;;1999.90;999.90;;;15.50;99.90;;;;;;5095070;28;20393;-83
2022/09/20 07:26:04;;;;;;;1999.90;999.90;;;15.80;99.90;;;;;;5078761;28;20036;-83
2022/09/20 07:28:32;;;;;;;1999.90;999.90;;;15.90;99.90;;;;;;5113136;28;20079;-83
2022/09/20 07:30:57;;;;;;;;;;;15.90;99.90;;;;;;5114142;28;20054;-83
2022/09/20 07:33:24;;;;;;;1999.90;999.90;;;16.00;99.90;;;;;;5095282;28;20310;-83
2022/09/20 07:35:53;;;;;;;1999.90;999.90;;;16.10;99.90;;;;;;5112506;28;20047;-83
2022/09/20 07:38:20;;;;;;;1999.90;999.90;;;16.20;99.90;;;;;;5112984;28;20105;-84
2022/09/20 07:40:57;;;;;;;1999.90;999.90;;;16.40;99.90;;;;;;5113519;28;20123;-84
2022/09/20 07:43:24;;;;;;;1999.90;999.90;;;16.20;99.90;;;;;;5094911;28;20096;-83
2022/09/20 07:45:53;;;;;;;1999.90;999.90;;;16.30;99.90;;;;;;5095388;28;20043;-83
2022/09/20 07:48:24;;;;;;;1999.90;999.90;;;16.30;99.90;;;;;;5095763;28;20048;-83
2022/09/20 07:50:52;;;;;;;1999.90;999.90;;;16.40;99.90;;;;;;5095054;28;20040;-83
2022/09/20 07:53:18;;;;;;;;;;;16.60;99.90;;;;;;5113302;28;20399;-84
2022/09/20 07:56:12;;;;;;;1999.90;999.90;;;16.60;99.90;;;;;;5112107;28;19919;-83
2022/09/20 07:58:38;;;;;;;1999.90;999.90;;;16.90;99.90;;;;;;5092284;28;20093;-85
2022/09/20 08:01:09;;;;;;;1999.90;999.90;;;17.10;99.90;;;;;;5112780;28;20050;-84
2022/09/20 08:03:39;;;;;;;1999.90;999.90;;;17.20;99.90;;;;;;5077864;28;20122;-83
2022/09/20 08:06:13;;;;;;;1999.90;999.90;;;16.80;99.90;;;;;;5095241;28;20040;-83
2022/09/20 08:08:40;;;;;;;1999.90;999.90;;;17.70;99.90;;;;;;5094554;28;20054;-83
2022/09/20 08:11:08;;;;;;;1999.90;999.90;;;17.90;99.90;;;;;;5112717;28;20126;-84
2022/09/20 08:13:40;;;;;;;1999.90;999.90;;;18.00;99.90;;;;;;5112790;28;20036;-84
2022/09/20 08:16:12;;;;;;;1999.90;999.90;;;18.00;99.90;;;;;;5112284;28;20044;-84
2022/09/20 08:18:37;;;;;;;1999.90;999.90;;;18.00;99.90;;;;;;5112872;28;20089;-83
2022/09/20 08:21:09;;;;;;;1999.90;999.90;;;17.90;99.90;;;;;;5113168;28;20051;-83
2022/09/20 08:23:40;;;;;;;1999.90;999.90;;;17.90;99.90;;;;;;5098570;28;20051;-83
2022/09/20 08:26:11;;;;;;;1999.90;999.90;;;17.90;99.90;;;;;;5117252;28;20047;-83
2022/09/20 08:28:38;;;;;;;1999.90;999.90;;;18.20;99.90;;;;;;5099020;28;20369;-83
2022/09/20 08:31:09;;;;;;;1999.90;999.90;;;19.30;99.90;;;;;;5117106;28;20118;-83
2022/09/20 08:33:36;;;;;;;1999.90;999.90;;;20.40;99.90;;;;;;5117597;28;20126;-83
2022/09/20 08:36:14;;;;;;;1999.90;999.90;;;21.80;99.90;;;;;;5082509;28;20050;-83
2022/09/20 08:38:40;;;;;;;1999.90;999.90;;;22.90;99.90;;;;;;5117398;28;20403;-83
2022/09/20 08:41:27;;;;;;;1999.90;999.90;;;23.90;99.90;;;;;;5099501;28;20496;-84
2022/09/20 08:44:01;;;;;;;1999.90;999.90;;;24.60;99.90;;;;;;5082743;28;20126;-84
2022/09/20 08:46:33;;;;;;;1999.90;784.28;;;25.20;99.90;;;;;;5082477;28;20377;-88
2022/09/20 08:48:59;;;;;;;1334.45;999.40;;;25.60;99.90;;;;;;5117784;28;20056;-84
2022/09/20 08:51:30;;;;;;;1063.05;948.42;;;25.90;99.90;;;;;;5098966;28;20472;-84
2022/09/20 08:53:57;;;;;;;959.05;877.38;;;26.20;99.90;;;;;;5099728;28;20047;-83
2022/09/20 08:56:27;;;;;;;691.80;642.17;;;26.80;99.90;;;;;;5100520;28;20043;-84
2022/09/20 08:58:55;;;;;;;684.58;637.30;;;26.90;99.90;;;;;;5118559;28;20048;-84
2022/09/20 09:01:23;;;;;;;537.22;502.27;;;27.70;99.90;;;;;;5083060;28;20040;-85
2022/09/20 09:03:50;;;;;;;523.10;490.05;;;28.30;99.90;;;;;;5099888;28;20054;-83
2022/09/20 09:06:20;;;;;;;461.80;433.35;;;29.00;99.90;;;;;;5117435;28;20044;-84
2022/09/20 09:08:49;;;;;;;471.15;442.30;;;28.70;99.90;;;;;;5116509;28;20086;-84
2022/09/20 09:11:17;;;;;;;413.38;388.27;;;29.30;99.90;;;;;;5098265;28;20052;-84
2022/09/20 09:14:47;;;;;;;496.65;464.88;;;29.60;99.90;;;;;;5116101;28;20043;-84
2022/09/20 09:16:52;;;;;;;445.83;418.35;;;30.00;99.90;;;;;;5094566;28;20055;-86
2022/09/20 09:19:30;;;;;;;732.13;676.35;;;29.60;99.90;;;;;;5094824;28;20120;-85
2022/09/20 09:21:58;;;;;;;874.08;794.28;;;28.60;99.90;;;;;;5077857;28;20052;-88
2022/09/20 09:24:24;;;;;;;1807.15;999.90;;;29.30;99.90;;;;;;5094269;28;20052;-84
2022/09/20 09:27:12;;;;;;;650.90;606.05;;;29.50;99.90;;;;;;5094786;28;20048;-90
2022/09/20 09:29:55;;;;;;;707.90;658.92;;;29.90;99.90;;;;;;5094634;28;20108;-86
2022/09/20 09:32:27;;;;;;;806.22;741.10;;;30.20;99.90;;;;;;5077129;28;20292;-85
2022/09/20 09:34:54;;;;;;;1964.00;999.90;;;29.80;99.90;;;;;;5061349;28;20044;-84
2022/09/20 09:37:27;;;;;;;1982.78;999.90;;;29.50;99.90;;;;;;5095570;28;20129;-84
2022/09/20 09:40:16;;;;;;;1965.90;999.90;;;28.60;99.90;;;;;;5096034;28;20047;-85
2022/09/20 09:42:54;;;;;;;1999.90;999.90;;;28.70;99.90;;;;;;5061147;28;20078;-84
2022/09/20 09:45:44;;;;;;;807.70;745.25;;;27.60;99.90;;;;;;5061049;28;20047;-83
2022/09/20 09:48:39;;;;;;;779.22;725.15;;;26.80;99.90;;;;;;5078111;28;20052;-84
2022/09/20 09:51:16;;;;;;;674.08;628.55;;;25.60;99.90;;;;;;5082337;28;20088;-84
2022/09/20 09:53:43;;;;;;;647.90;604.15;;;24.80;99.90;;;;;;5077927;28;20048;-83
2022/09/20 09:56:24;;;;;;;543.83;508.67;;;24.20;99.90;;;;;;5095867;28;20423;-84
2022/09/20 09:59:11;;;;;;;632.10;590.05;;;23.70;99.90;;;;;;5094672;28;20098;-84
2022/09/20 10:01:47;;;;;;;615.15;574.35;;;23.40;99.90;;;;;;5095465;28;20079;-85
2022/09/20 10:04:24;;;;;;;668.03;623.90;;;23.00;99.90;;;;;;5095773;28;20040;-84
2022/09/20 10:06:49;;;;;;;645.30;602.33;;;23.00;99.90;;;;;;5077760;28;20048;-83
2022/09/20 10:09:53;;;;;;;700.30;652.92;;;22.80;99.90;;;;;;5094979;28;20036;-86
2022/09/20 10:12:39;;;;;;;737.28;687.03;;;22.70;99.90;;;;;;5096618;28;20043;-84
2022/09/20 10:15:21;;;;;;;715.63;667.08;;;22.70;99.90;;;;;;5096967;28;20396;-84
2022/09/20 10:18:07;;;;;;;726.10;675.83;;;22.60;99.90;;;;;;5109412;28;20094;-84
2022/09/20 10:20:57;;;;;;;714.60;665.67;;;22.50;99.90;;;;;;5115513;28;20503;-83
2022/09/20 10:24:29;;;;;;;718.78;667.50;;;22.60;99.90;;;;;;5115424;28;20154;-83
2022/09/20 10:27:00;;;;;;;743.35;692.70;;;22.50;99.90;;;;;;5032587;28;20045;-84
2022/09/20 10:29:33;;;;;;;916.85;828.58;;;22.60;99.90;;;;;;5115337;28;20048;-84
2022/09/20 10:32:25;;;;;;;708.13;660.40;;;22.60;99.90;;;;;;5115216;28;20052;-84
2022/09/20 10:35:07;;;;;;;740.78;690.10;;;22.50;99.90;;;;;;5110975;28;20121;-84
2022/09/20 10:37:42;;;;;;;761.45;709.08;;;22.70;99.90;;;;;;5097241;28;20047;-84
2022/09/20 10:40:13;;;;;;;800.08;744.25;;;22.80;99.90;;;;;;5115341;28;20043;-84
2022/09/20 10:45:53;;;;;;;860.40;795.45;;;22.90;99.90;;;;;;5113510;28;20087;-85
2022/09/20 10:48:38;;;;;;;837.60;777.20;;;22.90;99.90;;;;;;5114462;28;20051;-84
2022/09/20 10:51:40;;;;;;;1028.43;887.58;;;23.00;99.90;;;;;;5096423;28;20042;-87
2022/09/20 10:54:29;;;;;;;800.05;741.75;;;23.10;99.90;;;;;;5095486;28;20173;-84
2022/09/20 10:57:11;;;;;;;1829.10;983.28;;;23.40;99.90;;;;;;5088049;28;20048;-84
2022/09/20 10:59:46;;;;;;;811.28;752.25;;;23.70;99.90;;;;;;5114778;28;20044;-84
2022/09/20 11:02:22;;;;;;;680.03;633.15;;;23.80;99.90;;;;;;5114261;28;20047;-85
2022/09/20 11:05:20;;;;;;;625.20;582.38;;;24.20;99.90;;;;;;5114026;28;20048;-84
2022/09/20 11:07:57;;;;;;;782.05;720.15;;;24.80;99.90;;;;;;5095727;28;20122;-84
2022/09/20 11:10:39;;;;;;;1054.97;893.58;;;25.60;99.90;;;;;;5114535;28;20043;-84
2022/09/20 11:13:20;;;;;;;1261.07;956.05;;;25.80;99.90;;;;;;5079643;28;20055;-84
2022/09/20 11:15:50;;;;;;;1840.75;999.90;;;26.90;99.90;;;;;;5079539;28;20476;-86
2022/09/20 11:18:49;;;;;;;;;;;;;;;;;;;;;
2022/09/20 11:21:27;;;;;;;1999.90;999.90;;;28.40;99.90;;;;;;5076643;28;20043;-85
2022/09/20 11:24:10;;;;;;;1999.90;999.90;;;28.80;99.90;;;;;;5058221;28;20040;-86
2022/09/20 11:26:48;;;;;;;1999.90;999.90;;;28.90;99.90;;;;;;5092803;28;20388;-84
2022/09/20 11:29:49;;;;;;;1999.90;999.90;;;28.10;99.90;;;;;;5075311;28;20477;-85
2022/09/20 11:32:23;;;;;;;1996.40;999.90;;;27.20;99.90;;;;;;5082109;28;20047;-85
2022/09/20 11:35:14;;;;;;;1999.90;999.90;;;26.50;99.90;;;;;;5074403;28;20040;-84
2022/09/20 11:37:54;;;;;;;1999.90;899.72;;;27.60;99.90;;;;;;5074769;28;20051;-84
2022/09/20 11:47:40;;;;;;;1999.90;999.90;;;29.50;99.90;;;;;;5026214;28;20489;-85
2022/09/20 11:50:37;;;;;;;1999.90;999.90;;;28.90;99.90;;;;;;5058974;28;20088;-84
2022/09/20 11:53:20;;;;;;;721.25;664.38;;;27.90;99.90;;;;;;5075210;28;20226;-85
2022/09/20 11:56:00;;;;;;;757.70;700.85;;;27.00;99.90;;;;;;5075717;28;20052;-84
2022/09/20 11:58:26;;;;;;;546.08;509.63;;;26.00;99.90;;;;;;5059175;28;20048;-84
2022/09/20 12:00:57;;;;;;;829.45;759.97;;;25.10;99.90;;;;;;5093442;28;20036;-84
2022/09/20 12:03:36;;;;;;;507.85;474.17;;;24.20;99.90;;;;;;5091979;28;20044;-85
2022/09/20 12:06:05;;;;;;;536.47;501.10;;;23.90;99.90;;;;;;5075300;28;20052;-85
2022/09/20 12:08:37;;;;;;;509.05;476.55;;;23.60;99.90;;;;;;5075095;28;20040;-84
2022/09/20 12:11:06;;;;;;;479.75;449.88;;;23.50;99.90;;;;;;5092698;28;20058;-85
2022/09/20 12:13:35;;;;;;;459.27;430.90;;;23.50;99.90;;;;;;5092899;28;20071;-85
2022/09/20 12:16:12;;;;;;;575.53;537.70;;;23.60;99.90;;;;;;5075029;28;20496;-84
2022/09/20 12:18:58;;;;;;;459.08;430.77;;;23.50;99.90;;;;;;5074854;28;20401;-84
2022/09/20 12:21:24;;;;;;;494.35;463.27;;;23.50;99.90;;;;;;5092776;28;20048;-84
2022/09/20 12:23:56;;;;;;;504.23;471.85;;;23.50;99.90;;;;;;5074205;28;20071;-84
2022/09/20 12:26:36;;;;;;;552.08;514.35;;;23.30;99.90;;;;;;5074761;28;20052;-83
2022/09/20 12:29:25;;;;;;;666.25;612.38;;;23.20;99.90;;;;;;5074235;28;20062;-84
2022/09/20 12:31:56;;;;;;;1548.07;706.78;;;23.20;99.90;;;;;;5092540;28;20106;-89
2022/09/20 12:34:33;;;;;;;624.28;580.08;;;23.20;99.90;;;;;;5092936;28;20369;-85
2022/09/20 12:36:58;;;;;;;632.17;588.97;;;23.10;99.90;;;;;;5092663;28;20055;-85
2022/09/20 12:39:29;;;;;;;432.95;406.38;;;22.80;99.90;;;;;;5074667;28;20047;-85
2022/09/20 12:42:20;;;;;;;585.17;546.80;;;22.50;99.90;;;;;;5092405;28;20079;-88
2022/09/20 12:44:49;;;;;;;657.20;612.45;;;22.20;99.90;;;;;;5092762;28;20048;-85
2022/09/20 12:47:32;;;;;;;846.58;765.70;;;22.00;99.90;;;;;;5092330;28;20043;-84
2022/09/20 12:53:02;;;;;;;870.33;802.75;;;21.80;99.90;;;;;;5092604;28;20079;-84
2022/09/20 12:55:42;;;;;;;861.75;788.03;;;21.40;99.90;;;;;;5092994;28;20052;-84
2022/09/20 12:58:16;;;;;;;710.33;659.78;;;21.30;99.90;;;;;;5074836;28;20495;-84
2022/09/20 13:00:54;;;;;;;633.75;590.80;;;21.30;99.90;;;;;;5074978;28;20048;-84
2022/09/20 13:03:37;;;;;;;707.53;658.95;;;21.10;99.90;;;;;;5092419;28;20048;-84
2022/09/20 13:06:06;;;;;;;712.60;662.67;;;21.20;99.90;;;;;;5092312;28;20489;-84
2022/09/20 13:08:53;;;;;;;877.42;805.17;;;21.40;99.90;;;;;;5093300;28;20048;-84
2022/09/20 13:11:39;;;;;;;918.58;841.97;;;21.80;99.90;;;;;;5095878;28;20123;-84
2022/09/20 13:14:05;;;;;;;975.15;842.00;;;21.90;99.90;;;;;;5095270;28;20044;-85
2022/09/20 13:16:57;;;;;;;1999.90;759.25;;;22.10;99.90;;;;;;5077819;28;20209;-85
2022/09/20 13:19:31;;;;;;;921.83;846.95;;;22.40;99.90;;;;;;5094500;28;20055;-87
2022/09/20 13:21:59;;;;;;;931.00;846.50;;;22.50;99.90;;;;;;5095648;28;20032;-85
2022/09/20 13:24:31;;;;;;;888.33;813.67;;;22.70;99.90;;;;;;5096202;28;20546;-85